createdAt,value
2019-05-20T00:00:42.142Z,99.90
2019-05-20T00:03:45.708Z,99.90
2019-05-20T00:06:49.244Z,99.90
2019-05-20T00:09:52.729Z,99.90
2019-05-20T00:12:56.185Z,99.90
2019-05-20T00:15:59.686Z,99.90
2019-05-20T00:19:03.237Z,99.90
2019-05-20T00:22:06.742Z,99.90
2019-05-20T00:25:10.572Z,99.90
2019-05-20T00:28:14.037Z,99.90
2019-05-20T00:31:17.597Z,99.90
2019-05-20T00:34:34.127Z,99.90
2019-05-20T00:37:26.277Z,99.90
2019-05-20T00:40:29.764Z,99.90
2019-05-20T00:43:33.312Z,99.90
2019-05-20T00:46:36.877Z,99.90
2019-05-20T00:49:40.413Z,99.90
2019-05-20T00:52:43.966Z,99.90
2019-05-20T00:55:47.542Z,99.90
2019-05-20T00:58:51.225Z,99.90
2019-05-20T01:01:54.712Z,99.90
2019-05-20T01:04:58.185Z,99.90
2019-05-20T01:08:01.676Z,99.90
2019-05-20T01:11:05.190Z,99.90
2019-05-20T01:14:08.784Z,99.90
2019-05-20T01:17:12.242Z,99.90
2019-05-20T01:20:16.188Z,99.90
2019-05-20T01:23:19.680Z,99.90
2019-05-20T01:26:23.163Z,99.90
2019-05-20T01:29:26.691Z,99.90
2019-05-20T01:32:30.301Z,99.90
2019-05-20T01:35:33.854Z,99.90
2019-05-20T01:38:37.387Z,99.90
2019-05-20T01:41:40.869Z,99.90
2019-05-20T01:44:44.328Z,99.90
2019-05-20T01:47:47.829Z,99.90
2019-05-20T01:50:51.324Z,99.90
2019-05-20T01:53:54.784Z,99.90
2019-05-20T01:56:58.272Z,99.90
2019-05-20T02:00:01.765Z,99.90
2019-05-20T02:03:05.225Z,99.90
2019-05-20T02:06:09.061Z,99.90
2019-05-20T02:09:12.533Z,99.90
2019-05-20T02:12:16.165Z,99.90
2019-05-20T02:15:33.476Z,99.90
2019-05-20T02:18:36.969Z,99.90
2019-05-20T02:21:40.476Z,99.90
2019-05-20T02:24:43.933Z,99.90
2019-05-20T02:27:47.494Z,99.90
2019-05-20T02:30:51.043Z,99.90
2019-05-20T02:33:54.608Z,99.90
2019-05-20T02:36:58.249Z,99.90
2019-05-20T02:40:01.714Z,99.90
2019-05-20T02:43:05.722Z,99.90
2019-05-20T02:46:09.318Z,99.90
2019-05-20T02:49:12.898Z,99.90
2019-05-20T02:52:16.429Z,99.90
2019-05-20T02:55:20.061Z,99.90
2019-05-20T02:58:23.526Z,99.90
2019-05-20T03:01:27.476Z,99.90
2019-05-20T03:04:30.943Z,99.90
2019-05-20T03:07:34.520Z,99.90
2019-05-20T03:10:38.003Z,99.90
2019-05-20T03:13:41.566Z,99.90
2019-05-20T03:16:45.230Z,99.90
2019-05-20T03:19:48.968Z,99.90
2019-05-20T03:22:52.637Z,99.90
2019-05-20T03:25:56.311Z,99.90
2019-05-20T03:28:59.844Z,99.90
2019-05-20T03:32:03.412Z,99.90
2019-05-20T03:35:07.761Z,99.90
2019-05-20T03:38:11.252Z,99.90
2019-05-20T03:41:14.805Z,99.90
2019-05-20T03:44:18.275Z,99.90
2019-05-20T03:47:21.847Z,99.90
2019-05-20T03:50:25.382Z,99.90
2019-05-20T03:53:29.013Z,99.90
2019-05-20T03:56:32.487Z,99.90
2019-05-20T03:59:35.987Z,99.90
2019-05-20T04:02:39.451Z,99.90
2019-05-20T04:05:43.485Z,99.90
2019-05-20T04:08:46.948Z,99.90
2019-05-20T04:11:50.441Z,99.90
2019-05-20T04:14:53.896Z,99.90
2019-05-20T04:17:57.431Z,99.90
2019-05-20T04:21:00.947Z,99.90
2019-05-20T04:24:05.091Z,99.90
2019-05-20T04:27:08.990Z,99.90
2019-05-20T04:30:12.501Z,99.90
2019-05-20T04:33:16.040Z,99.90
2019-05-20T04:36:19.594Z,99.90
2019-05-20T04:39:23.136Z,99.90
2019-05-20T04:42:26.690Z,99.90
2019-05-20T04:45:30.265Z,99.90
2019-05-20T04:48:33.723Z,99.90
2019-05-20T04:51:37.205Z,99.90
2019-05-20T04:54:40.696Z,99.90
2019-05-20T04:57:44.269Z,99.90
2019-05-20T05:00:50.417Z,99.90
2019-05-20T05:03:54.036Z,99.90
2019-05-20T05:06:57.613Z,99.90
2019-05-20T05:10:01.254Z,99.90
2019-05-20T05:13:04.719Z,99.90
2019-05-20T05:16:08.452Z,99.90
2019-05-20T05:19:11.924Z,99.90
2019-05-20T05:22:15.489Z,99.90
2019-05-20T05:25:18.991Z,99.90
2019-05-20T05:28:22.590Z,99.90
2019-05-20T05:31:26.299Z,99.90
2019-05-20T05:34:29.826Z,99.90
2019-05-20T05:37:33.323Z,99.90
2019-05-20T05:40:36.813Z,99.90
2019-05-20T05:43:40.350Z,99.90
2019-05-20T05:46:43.921Z,99.90
2019-05-20T05:49:47.441Z,97.30
2019-05-20T05:52:50.952Z,95.60
2019-05-20T05:55:54.415Z,94.80
2019-05-20T05:58:57.976Z,93.20
2019-05-20T06:02:01.462Z,90.70
2019-05-20T06:05:05.800Z,85.50
2019-05-20T06:08:09.330Z,81.80
2019-05-20T06:11:12.841Z,79.90
2019-05-20T06:14:16.469Z,77.10
2019-05-20T06:17:20.073Z,75.30
2019-05-20T06:20:23.740Z,78.20
2019-05-20T06:23:27.243Z,84.30
2019-05-20T06:26:30.736Z,90.00
2019-05-20T06:29:34.193Z,92.50
2019-05-20T06:32:37.822Z,95.70
2019-05-20T06:35:41.385Z,99.90
2019-05-20T06:38:46.264Z,99.90
2019-05-20T06:41:49.829Z,99.90
2019-05-20T06:44:57.130Z,99.90
2019-05-20T06:47:58.520Z,99.90
2019-05-20T06:51:02.072Z,99.90
2019-05-20T06:54:05.685Z,99.90
2019-05-20T06:57:09.264Z,99.90
2019-05-20T07:00:13.641Z,99.90
2019-05-20T07:03:17.102Z,99.90
2019-05-20T07:06:20.665Z,99.90
2019-05-20T07:09:24.125Z,99.90
2019-05-20T07:12:40.563Z,99.90
2019-05-20T07:15:32.909Z,99.90
2019-05-20T07:18:36.372Z,99.90
2019-05-20T07:21:39.873Z,99.90
2019-05-20T07:24:43.412Z,99.90
2019-05-20T07:27:46.961Z,99.90
2019-05-20T07:30:50.459Z,99.90
2019-05-20T07:33:53.912Z,99.90
2019-05-20T07:37:03.062Z,99.90
2019-05-20T07:40:02.662Z,99.90
2019-05-20T07:43:06.238Z,99.90
2019-05-20T07:46:10.821Z,99.90
2019-05-20T07:49:15.229Z,99.90
2019-05-20T07:52:20.067Z,99.90
2019-05-20T07:55:26.548Z,99.90
2019-05-20T07:58:33.711Z,99.90
2019-05-20T08:01:37.537Z,99.90
2019-05-20T08:04:41.037Z,99.90
2019-05-20T08:07:51.725Z,99.90
2019-05-20T08:10:49.761Z,99.90
2019-05-20T08:13:53.279Z,99.90
2019-05-20T08:16:56.883Z,99.90
2019-05-20T08:20:00.513Z,99.90
2019-05-20T08:23:04.041Z,99.90
2019-05-20T08:26:07.765Z,99.90
2019-05-20T08:29:11.244Z,99.90
2019-05-20T08:32:14.790Z,99.90
2019-05-20T08:35:18.327Z,99.90
2019-05-20T08:38:21.841Z,99.90
2019-05-20T08:41:25.439Z,99.90
2019-05-20T08:44:29.144Z,99.90
2019-05-20T08:47:33.069Z,99.90
2019-05-20T08:50:36.769Z,99.90
2019-05-20T08:53:40.314Z,99.90
2019-05-20T08:56:43.944Z,99.90
2019-05-20T08:59:47.503Z,99.90
2019-05-20T09:02:51.187Z,99.90
2019-05-20T09:05:54.689Z,99.90
2019-05-20T09:08:58.253Z,99.90
2019-05-20T09:12:01.875Z,99.90
2019-05-20T09:15:07.375Z,99.90
2019-05-20T09:18:11.005Z,99.90
2019-05-20T09:21:14.647Z,99.90
2019-05-20T09:24:19.113Z,99.90
2019-05-20T09:27:22.720Z,99.90
2019-05-20T09:30:26.329Z,99.90
2019-05-20T09:33:31.271Z,99.90
2019-05-20T09:36:35.045Z,99.90
2019-05-20T09:39:38.537Z,99.90
2019-05-20T09:42:42.039Z,99.90
2019-05-20T09:45:45.632Z,99.90
2019-05-20T09:48:49.123Z,99.90
2019-05-20T09:51:52.575Z,99.90
2019-05-20T09:54:56.076Z,99.90
2019-05-20T09:57:59.544Z,99.90
2019-05-20T10:01:03.111Z,99.90
2019-05-20T10:04:06.708Z,99.90
2019-05-20T10:07:10.286Z,99.90
2019-05-20T10:10:14.265Z,99.90
2019-05-20T10:13:17.761Z,99.90
2019-05-20T10:16:30.345Z,99.90
2019-05-20T10:19:33.872Z,99.90
2019-05-20T10:22:37.366Z,99.90
2019-05-20T10:25:40.872Z,99.90
2019-05-20T10:28:47.184Z,99.90
2019-05-20T10:31:49.617Z,99.90
2019-05-20T10:34:53.112Z,99.90
2019-05-20T10:37:56.649Z,99.90
2019-05-20T10:41:00.136Z,99.90
2019-05-20T10:44:04.341Z,99.90
2019-05-20T10:47:07.909Z,99.90
2019-05-20T10:50:11.839Z,99.90
2019-05-20T10:53:15.296Z,99.90
2019-05-20T10:56:18.870Z,99.90
2019-05-20T10:59:33.558Z,99.90
2019-05-20T11:02:37.120Z,99.90
2019-05-20T11:05:40.737Z,99.90
2019-05-20T11:08:44.301Z,99.90
2019-05-20T11:11:47.774Z,99.90
2019-05-20T11:14:51.334Z,99.90
2019-05-20T11:17:54.834Z,99.90
2019-05-20T11:20:58.382Z,99.90
2019-05-20T11:24:01.913Z,99.90
2019-05-20T11:27:05.473Z,99.90
2019-05-20T11:30:10.842Z,99.90
2019-05-20T11:33:14.345Z,99.90
2019-05-20T11:36:17.810Z,99.90
